Time;durP1;ratioP1;P1;durP2;ratioP2;P2;SDS_P1;SDS_P2;PMS_P1;PMS_P2;Temp;Humidity;BMP_temperature;BMP_pressure;BME280_temperature;BME280_humidity;BME280_pressure;Samples;Min_cycle;Max_cycle;Signal;HPM_P1;HPM_P2
2023/10/18 00:01:39;;;;;;;15.63;14.10;;;4.30;78.70;;;;;;6219542;28;20269;-80
2023/10/18 00:04:44;;;;;;;15.63;14.23;;;4.30;78.70;;;;;;6231807;28;20240;-79
2023/10/18 00:07:48;;;;;;;15.73;14.13;;;4.30;78.80;;;;;;6232085;28;20746;-80
2023/10/18 00:10:53;;;;;;;17.07;15.43;;;4.30;78.80;;;;;;6249756;28;20238;-82
2023/10/18 00:13:56;;;;;;;15.13;13.47;;;4.30;78.90;;;;;;6244164;28;20250;-81
2023/10/18 00:17:00;;;;;;;15.30;13.80;;;4.30;78.90;;;;;;6243251;28;20667;-81
2023/10/18 00:20:13;;;;;;;15.13;13.63;;;4.30;78.80;;;;;;6230026;28;20884;-79
2023/10/18 00:23:16;;;;;;;14.97;13.57;;;4.20;78.90;;;;;;6217425;28;20377;-83
2023/10/18 00:26:19;;;;;;;14.33;13.03;;;4.20;78.90;;;;;;6233190;28;20242;-82
2023/10/18 00:29:23;;;;;;;15.77;14.27;;;4.20;78.90;;;;;;6238974;28;20241;-81
2023/10/18 00:32:27;;;;;;;15.10;13.67;;;4.20;79.00;;;;;;6230827;28;20247;-80
2023/10/18 00:35:32;;;;;;;14.67;13.27;;;4.10;79.00;;;;;;6233218;28;20234;-81
2023/10/18 00:38:35;;;;;;;15.30;13.80;;;4.20;79.00;;;;;;6228905;28;20230;-80
2023/10/18 00:41:43;;;;;;;14.30;13.00;;;4.10;79.10;;;;;;6225629;28;20747;-82
2023/10/18 00:44:49;;;;;;;14.63;13.23;;;4.10;79.10;;;;;;6230359;28;20246;-82
2023/10/18 00:47:54;;;;;;;15.40;13.90;;;4.10;79.20;;;;;;6225209;28;20243;-79
2023/10/18 00:51:00;;;;;;;16.43;14.03;;;4.10;79.20;;;;;;6239064;28;20233;-80
2023/10/18 00:54:11;;;;;;;15.63;13.77;;;4.10;79.30;;;;;;6234442;28;20337;-81
2023/10/18 00:57:19;;;;;;;16.30;13.23;;;4.10;79.30;;;;;;6235340;28;20321;-81
2023/10/18 01:00:30;;;;;;;15.47;13.87;;;4.10;79.30;;;;;;6231871;28;20613;-80
2023/10/18 01:03:35;;;;;;;13.60;12.27;;;4.10;79.40;;;;;;6227921;28;20238;-82
2023/10/18 01:06:46;;;;;;;13.13;12.00;;;4.10;79.40;;;;;;6237106;28;20686;-81
2023/10/18 01:09:53;;;;;;;13.50;12.20;;;4.10;79.40;;;;;;6232478;28;20246;-82
2023/10/18 01:12:57;;;;;;;14.10;12.80;;;4.10;79.40;;;;;;6237724;28;20238;-81
2023/10/18 01:16:04;;;;;;;14.67;13.20;;;4.00;79.50;;;;;;6241778;28;20336;-82
2023/10/18 01:19:08;;;;;;;13.53;12.27;;;4.00;79.50;;;;;;6235006;28;20751;-81
2023/10/18 01:22:17;;;;;;;14.13;12.73;;;4.00;79.60;;;;;;6225413;28;20235;-81
2023/10/18 01:25:21;;;;;;;13.80;12.47;;;4.00;79.60;;;;;;6233716;28;20237;-80
2023/10/18 01:28:24;;;;;;;13.43;12.10;;;4.00;79.60;;;;;;6232587;28;20308;-80
2023/10/18 01:31:28;;;;;;;13.57;12.20;;;4.00;79.60;;;;;;6220422;28;20243;-80
2023/10/18 01:34:32;;;;;;;13.40;12.20;;;4.00;79.60;;;;;;6226325;28;20235;-81
2023/10/18 01:37:35;;;;;;;13.27;12.17;;;4.00;79.60;;;;;;6238033;28;20318;-80
2023/10/18 01:40:52;;;;;;;13.10;11.93;;;3.90;79.60;;;;;;6232748;28;20270;-80
2023/10/18 01:43:58;;;;;;;13.13;12.03;;;3.90;79.70;;;;;;6257887;28;20710;-81
2023/10/18 01:47:06;;;;;;;13.90;12.70;;;3.90;79.70;;;;;;6226033;28;20758;-80
2023/10/18 01:50:13;;;;;;;12.60;11.40;;;3.90;79.70;;;;;;6239771;28;20230;-80
2023/10/18 01:53:16;;;;;;;12.90;11.80;;;3.90;79.70;;;;;;6240816;28;20238;-81
2023/10/18 01:56:21;;;;;;;12.63;11.60;;;3.90;79.80;;;;;;6232341;28;20235;-81
2023/10/18 01:59:27;;;;;;;12.67;11.50;;;3.90;79.80;;;;;;6225516;28;20329;-81
2023/10/18 02:02:32;;;;;;;13.10;12.00;;;3.90;79.90;;;;;;6246686;28;20242;-82
2023/10/18 02:05:38;;;;;;;12.67;11.57;;;3.90;79.90;;;;;;6255662;28;20242;-81
2023/10/18 02:08:42;;;;;;;14.13;12.83;;;3.90;80.00;;;;;;6241912;28;20231;-80
2023/10/18 02:11:47;;;;;;;15.00;13.10;;;3.90;80.00;;;;;;6243789;28;20324;-80
2023/10/18 02:14:51;;;;;;;13.60;12.50;;;3.90;80.00;;;;;;6252757;28;20241;-81
2023/10/18 02:17:57;;;;;;;13.63;12.43;;;3.90;80.10;;;;;;6245908;28;20303;-81
2023/10/18 02:21:02;;;;;;;13.57;12.47;;;3.90;80.20;;;;;;6232198;28;20731;-81
2023/10/18 02:24:07;;;;;;;14.90;13.60;;;3.90;80.20;;;;;;6244071;28;20718;-81
2023/10/18 02:27:15;;;;;;;14.27;12.87;;;3.80;80.20;;;;;;6238632;28;20258;-84
2023/10/18 02:30:19;;;;;;;14.60;13.40;;;3.80;80.20;;;;;;6247703;28;20805;-80
2023/10/18 02:33:36;;;;;;;13.57;12.27;;;3.80;80.40;;;;;;6244419;28;20361;-81
2023/10/18 02:36:40;;;;;;;13.53;12.33;;;3.70;80.30;;;;;;6239805;28;20246;-81
2023/10/18 02:39:43;;;;;;;16.20;13.80;;;3.80;80.40;;;;;;6237303;28;20239;-80
2023/10/18 02:42:55;;;;;;;13.00;11.90;;;3.70;80.40;;;;;;6237175;28;20246;-81
2023/10/18 02:45:58;;;;;;;13.57;12.37;;;3.70;80.40;;;;;;6243004;28;20242;-80
2023/10/18 02:49:02;;;;;;;13.53;12.40;;;3.70;80.50;;;;;;6260249;28;20729;-80
2023/10/18 02:52:09;;;;;;;13.30;12.10;;;3.60;80.50;;;;;;6252137;28;20800;-81
2023/10/18 02:55:13;;;;;;;13.50;12.40;;;3.70;80.50;;;;;;6258596;28;20849;-81
2023/10/18 02:58:21;;;;;;;13.67;12.50;;;3.60;80.50;;;;;;6226094;28;20228;-81
2023/10/18 03:01:25;;;;;;;13.73;12.43;;;3.60;80.50;;;;;;6233472;28;20266;-79
2023/10/18 03:04:32;;;;;;;12.77;11.57;;;3.60;80.50;;;;;;6230152;28;20261;-79
2023/10/18 03:07:37;;;;;;;13.10;11.97;;;3.60;80.50;;;;;;6213723;28;20235;-81
2023/10/18 03:10:44;;;;;;;11.43;10.37;;;3.50;80.60;;;;;;6214940;28;20230;-81
2023/10/18 03:13:51;;;;;;;12.03;11.03;;;3.50;80.70;;;;;;6223503;28;20286;-80
2023/10/18 03:16:55;;;;;;;12.13;10.97;;;3.50;80.70;;;;;;6231124;28;20235;-81
2023/10/18 03:20:01;;;;;;;11.80;10.80;;;3.50;80.70;;;;;;6230807;28;20231;-80
2023/10/18 03:23:04;;;;;;;11.50;10.60;;;3.50;80.80;;;;;;6226052;28;20230;-82
2023/10/18 03:26:11;;;;;;;11.00;10.23;;;3.50;80.80;;;;;;6236464;28;20287;-82
2023/10/18 03:29:15;;;;;;;12.07;11.07;;;3.50;80.80;;;;;;6228184;28;20265;-82
2023/10/18 03:32:20;;;;;;;12.03;11.10;;;3.50;80.90;;;;;;6222329;28;20289;-80
2023/10/18 03:35:25;;;;;;;12.13;10.93;;;3.50;80.90;;;;;;6232717;28;20257;-82
2023/10/18 03:38:32;;;;;;;11.17;10.27;;;3.50;80.80;;;;;;6232848;28;20731;-81
2023/10/18 03:41:40;;;;;;;11.80;10.80;;;3.50;80.90;;;;;;6225735;28;20238;-81
2023/10/18 03:44:46;;;;;;;12.07;11.07;;;3.50;80.90;;;;;;6223457;28;20247;-80
2023/10/18 03:47:57;;;;;;;13.47;12.27;;;3.50;80.90;;;;;;6202061;28;21589;-81
2023/10/18 03:51:03;;;;;;;11.47;10.57;;;3.50;80.90;;;;;;6217930;28;20235;-80
2023/10/18 03:54:13;;;;;;;11.60;10.53;;;3.40;80.90;;;;;;6237789;28;20244;-81
2023/10/18 03:57:18;;;;;;;11.83;10.80;;;3.40;80.90;;;;;;6238665;28;20234;-81
2023/10/18 04:00:38;;;;;;;11.10;10.17;;;3.40;80.90;;;;;;6237911;28;20237;-80
2023/10/18 04:03:41;;;;;;;12.00;11.07;;;3.30;80.90;;;;;;6201529;28;20238;-80
2023/10/18 04:06:44;;;;;;;11.00;10.20;;;3.30;80.90;;;;;;6203460;28;20243;-80
2023/10/18 04:09:53;;;;;;;11.13;10.20;;;3.30;80.90;;;;;;6205074;28;20228;-81
2023/10/18 04:12:56;;;;;;;10.97;10.07;;;3.30;80.90;;;;;;6205295;28;20729;-79
2023/10/18 04:16:09;;;;;;;10.77;10.07;;;3.30;81.00;;;;;;6202650;28;20306;-80
2023/10/18 04:19:13;;;;;;;10.40;9.60;;;3.30;81.00;;;;;;6223777;28;20230;-81
2023/10/18 04:22:17;;;;;;;10.37;9.67;;;3.30;81.00;;;;;;6225555;28;20249;-82
2023/10/18 04:25:26;;;;;;;9.43;8.83;;;3.30;81.10;;;;;;6237148;28;20244;-81
2023/10/18 04:28:31;;;;;;;10.00;9.10;;;3.30;81.10;;;;;;6233808;28;20333;-79
2023/10/18 04:31:36;;;;;;;10.50;9.70;;;3.30;81.10;;;;;;6230597;28;20244;-81
2023/10/18 04:34:39;;;;;;;10.37;9.37;;;3.30;81.20;;;;;;6231601;28;20258;-81
2023/10/18 04:37:43;;;;;;;10.43;9.60;;;3.30;81.10;;;;;;6232580;28;20293;-81
2023/10/18 04:40:52;;;;;;;10.53;9.60;;;3.30;81.10;;;;;;6234134;28;20618;-79
2023/10/18 04:44:04;;;;;;;11.03;10.13;;;3.20;81.10;;;;;;6236748;28;20239;-79
2023/10/18 04:47:14;;;;;;;10.53;9.73;;;3.10;81.10;;;;;;6247551;28;20237;-80
2023/10/18 04:50:29;;;;;;;10.30;9.50;;;3.20;81.20;;;;;;6242085;28;20245;-79
2023/10/18 04:53:33;;;;;;;10.17;9.43;;;3.10;81.20;;;;;;6229451;28;20330;-81
2023/10/18 04:56:37;;;;;;;10.70;9.80;;;3.10;81.20;;;;;;6246639;28;20239;-79
2023/10/18 04:59:47;;;;;;;10.17;9.20;;;3.10;81.20;;;;;;6230376;28;20234;-81
2023/10/18 05:02:51;;;;;;;10.67;9.77;;;3.10;81.20;;;;;;6243761;28;20242;-79
2023/10/18 05:05:56;;;;;;;11.13;10.27;;;3.10;81.20;;;;;;6238628;28;20262;-79
2023/10/18 05:09:05;;;;;;;11.43;10.33;;;3.10;81.40;;;;;;6235535;28;20247;-80
2023/10/18 05:12:16;;;;;;;12.80;11.70;;;3.10;81.50;;;;;;6237476;28;20229;-80
2023/10/18 05:15:29;;;;;;;10.80;9.97;;;3.10;81.50;;;;;;6223814;28;20840;-79
2023/10/18 05:18:33;;;;;;;12.67;10.63;;;3.10;81.50;;;;;;6244100;28;20670;-79
2023/10/18 05:21:38;;;;;;;11.27;10.30;;;3.10;81.40;;;;;;6225961;28;20267;-79
2023/10/18 05:24:41;;;;;;;10.67;9.80;;;3.10;81.40;;;;;;6228139;28;20335;-77
2023/10/18 05:27:59;;;;;;;11.67;10.67;;;3.10;81.40;;;;;;6240568;28;20284;-78
2023/10/18 05:31:27;;;;;;;12.07;10.77;;;3.10;81.40;;;;;;6240700;28;20242;-80
2023/10/18 05:34:48;;;;;;;11.83;10.73;;;3.10;81.50;;;;;;6236092;28;20329;-78
2023/10/18 05:38:18;;;;;;;12.53;11.37;;;3.10;81.60;;;;;;6232743;28;20330;-78
2023/10/18 05:41:28;;;;;;;11.50;10.40;;;3.10;81.50;;;;;;6239404;28;20623;-79
2023/10/18 05:44:32;;;;;;;13.10;11.80;;;3.10;81.50;;;;;;6237466;28;20235;-78
2023/10/18 05:47:36;;;;;;;12.00;10.93;;;3.10;81.70;;;;;;6236605;28;20256;-81
2023/10/18 05:50:45;;;;;;;11.10;10.20;;;3.10;81.70;;;;;;6254713;28;20233;-78
2023/10/18 05:53:48;;;;;;;12.20;11.07;;;3.10;81.60;;;;;;6240428;28;20239;-79
2023/10/18 05:56:53;;;;;;;11.70;10.60;;;3.10;81.60;;;;;;6240835;28;20234;-79
2023/10/18 05:59:56;;;;;;;11.30;10.40;;;3.10;81.60;;;;;;6239253;28;20811;-79
2023/10/18 06:02:59;;;;;;;11.57;10.53;;;3.10;81.60;;;;;;6222725;28;20315;-79
2023/10/18 06:06:04;;;;;;;11.97;10.43;;;3.20;81.60;;;;;;6234129;28;20304;-81
2023/10/18 06:09:10;;;;;;;13.83;12.63;;;3.20;81.50;;;;;;6244571;28;20286;-78
2023/10/18 06:12:15;;;;;;;12.10;11.07;;;3.20;81.60;;;;;;6228239;28;20271;-80
2023/10/18 06:15:34;;;;;;;13.10;11.80;;;3.30;81.70;;;;;;6235143;28;20276;-78
2023/10/18 06:18:37;;;;;;;15.03;13.03;;;3.30;81.80;;;;;;6240243;28;20710;-78
2023/10/18 06:21:57;;;;;;;11.90;10.80;;;3.30;81.80;;;;;;6244475;28;20300;-78
2023/10/18 06:25:03;;;;;;;11.87;10.83;;;3.50;81.70;;;;;;6237934;28;20258;-76
2023/10/18 06:28:08;;;;;;;12.60;11.40;;;3.50;81.70;;;;;;6236106;28;20725;-78
2023/10/18 06:31:12;;;;;;;19.73;14.00;;;3.60;81.80;;;;;;6212800;28;20261;-80
2023/10/18 06:34:17;;;;;;;15.60;13.93;;;3.60;81.70;;;;;;6216222;28;20852;-79
2023/10/18 06:37:23;;;;;;;13.93;12.67;;;3.70;81.90;;;;;;6240116;28;20242;-80
2023/10/18 06:40:40;;;;;;;14.57;13.10;;;3.90;81.70;;;;;;6233970;28;20241;-80
2023/10/18 06:44:00;;;;;;;12.97;11.67;;;3.90;81.60;;;;;;6238461;28;20640;-79
2023/10/18 06:47:06;;;;;;;14.13;12.73;;;4.00;81.50;;;;;;6234404;28;20373;-80
2023/10/18 06:50:11;;;;;;;13.43;12.13;;;4.00;81.50;;;;;;6236815;28;20272;-81
2023/10/18 06:53:22;;;;;;;13.63;12.37;;;4.10;81.30;;;;;;6236490;28;20223;-80
2023/10/18 06:56:26;;;;;;;11.67;10.77;;;4.20;81.20;;;;;;6226715;28;20838;-77
2023/10/18 07:03:05;;;;;;;15.00;11.97;;;4.40;80.70;;;;;;6233790;28;20322;-79
2023/10/18 07:06:16;;;;;;;17.07;12.63;;;4.40;80.60;;;;;;6238628;28;20715;-81
2023/10/18 07:09:26;;;;;;;12.20;11.13;;;4.50;80.30;;;;;;6228256;28;20228;-79
2023/10/18 07:12:44;;;;;;;13.47;12.10;;;4.50;80.50;;;;;;6243883;28;20260;-79
2023/10/18 07:15:47;;;;;;;13.33;11.93;;;4.70;80.40;;;;;;6241746;28;20341;-78
2023/10/18 07:19:04;;;;;;;11.67;10.77;;;4.70;80.10;;;;;;6232375;28;20230;-80
2023/10/18 07:22:17;;;;;;;11.63;10.43;;;4.90;80.10;;;;;;6233030;28;20234;-79
2023/10/18 07:25:27;;;;;;;13.93;11.83;;;5.00;80.00;;;;;;6236643;28;20243;-78
2023/10/18 07:28:35;;;;;;;12.70;11.50;;;5.00;79.50;;;;;;6237266;28;20235;-79
2023/10/18 07:31:39;;;;;;;12.23;11.03;;;5.10;79.40;;;;;;6232644;28;20330;-79
2023/10/18 07:34:43;;;;;;;13.30;10.97;;;5.30;79.30;;;;;;6240286;28;20254;-79
2023/10/18 07:37:46;;;;;;;12.23;11.17;;;5.30;78.70;;;;;;6234945;28;20238;-79
2023/10/18 07:40:59;;;;;;;15.53;11.53;;;5.50;78.70;;;;;;6231091;28;20361;-78
2023/10/18 07:44:05;;;;;;;12.87;11.67;;;5.60;78.50;;;;;;6211264;28;20231;-78
2023/10/18 07:47:09;;;;;;;14.27;11.50;;;5.70;78.00;;;;;;6240074;28;20647;-78
2023/10/18 07:50:41;;;;;;;12.93;11.83;;;5.80;78.00;;;;;;6239388;28;20242;-79
2023/10/18 07:53:45;;;;;;;13.90;12.27;;;5.80;77.40;;;;;;6230225;28;20699;-79
2023/10/18 07:56:50;;;;;;;13.03;11.77;;;6.00;77.30;;;;;;6234908;28;20231;-80
2023/10/18 08:00:21;;;;;;;14.30;12.90;;;6.00;76.90;;;;;;6240105;28;20234;-82
2023/10/18 08:03:17;;;;;;;14.13;12.77;;;6.10;76.60;;;;;;6236842;28;20409;-78
2023/10/18 08:06:26;;;;;;;17.33;13.57;;;6.20;76.60;;;;;;6234139;28;20226;-79
2023/10/18 08:09:30;;;;;;;15.57;13.00;;;6.30;76.40;;;;;;6228874;28;20245;-76
2023/10/18 08:12:34;;;;;;;14.47;12.97;;;6.40;76.50;;;;;;6237425;28;20332;-78
2023/10/18 08:15:38;;;;;;;14.90;13.40;;;6.50;76.30;;;;;;6238040;28;20261;-79
2023/10/18 08:18:43;;;;;;;16.40;14.20;;;6.60;76.30;;;;;;6235159;28;20354;-78
2023/10/18 08:21:58;;;;;;;17.20;13.57;;;6.80;75.90;;;;;;6246964;28;20758;-80
2023/10/18 08:25:01;;;;;;;16.27;13.37;;;6.80;75.10;;;;;;6228218;28;20248;-79
2023/10/18 08:28:06;;;;;;;15.47;13.90;;;6.90;75.10;;;;;;6232843;28;20868;-79
2023/10/18 08:31:17;;;;;;;13.83;12.47;;;6.90;74.80;;;;;;6225857;28;20388;-77
2023/10/18 08:34:20;;;;;;;15.97;14.27;;;7.00;74.90;;;;;;6234203;28;20738;-78
2023/10/18 08:37:24;;;;;;;15.67;13.87;;;7.20;74.30;;;;;;6235219;28;20261;-80
2023/10/18 08:40:36;;;;;;;15.03;13.47;;;7.30;74.00;;;;;;6234920;28;20261;-80
2023/10/18 08:43:52;;;;;;;14.20;12.70;;;7.50;73.60;;;;;;6204650;28;20242;-79
2023/10/18 08:47:03;;;;;;;15.37;13.70;;;7.60;73.40;;;;;;6237327;28;20238;-79
2023/10/18 08:50:12;;;;;;;14.23;12.93;;;7.80;73.20;;;;;;6236881;28;20293;-80
2023/10/18 08:53:17;;;;;;;16.77;13.07;;;7.80;72.90;;;;;;6232357;28;20226;-80
2023/10/18 08:56:29;;;;;;;14.27;12.87;;;8.00;72.90;;;;;;6230167;28;20636;-78
2023/10/18 08:59:42;;;;;;;14.23;12.87;;;8.10;72.10;;;;;;6231300;28;20868;-79
2023/10/18 09:02:48;;;;;;;15.63;12.83;;;8.30;72.10;;;;;;6231651;28;20757;-78
2023/10/18 09:05:52;;;;;;;13.60;12.20;;;8.50;71.70;;;;;;6237193;28;20239;-80
2023/10/18 09:09:05;;;;;;;13.83;12.63;;;8.60;71.10;;;;;;6234157;28;20731;-78
2023/10/18 09:12:15;;;;;;;12.70;11.60;;;8.80;70.40;;;;;;6236037;28;20341;-77
2023/10/18 09:15:27;;;;;;;12.60;11.50;;;8.90;70.50;;;;;;6231324;28;20239;-79
2023/10/18 09:18:31;;;;;;;13.93;12.63;;;9.00;70.00;;;;;;6230646;28;20282;-77
2023/10/18 09:21:42;;;;;;;12.40;11.10;;;9.00;69.60;;;;;;6230030;28;20725;-80
2023/10/18 09:24:46;;;;;;;12.67;11.53;;;9.20;69.90;;;;;;6230615;28;20385;-79
2023/10/18 09:27:49;;;;;;;11.80;10.90;;;9.40;69.20;;;;;;6246477;28;20382;-80
2023/10/18 09:31:00;;;;;;;11.43;10.00;;;9.40;68.90;;;;;;6240796;28;20688;-80
2023/10/18 09:34:08;;;;;;;12.50;11.47;;;9.50;68.90;;;;;;6236148;28;20237;-79
2023/10/18 09:37:12;;;;;;;10.70;9.80;;;9.80;68.40;;;;;;6236383;28;20290;-81
2023/10/18 09:40:15;;;;;;;10.73;10.03;;;9.90;67.40;;;;;;6246080;28;20245;-78
2023/10/18 09:43:18;;;;;;;8.37;7.77;;;10.00;67.10;;;;;;6237387;28;20262;-80
2023/10/18 09:46:24;;;;;;;9.10;8.40;;;10.10;66.80;;;;;;6241747;28;20245;-78
2023/10/18 09:49:28;;;;;;;9.70;9.00;;;10.30;65.90;;;;;;6239106;28;20226;-77
2023/10/18 09:52:33;;;;;;;9.37;8.67;;;10.40;65.40;;;;;;6246310;28;20230;-80
2023/10/18 09:55:41;;;;;;;8.63;7.93;;;10.50;65.20;;;;;;6245334;28;20247;-79
2023/10/18 09:58:47;;;;;;;8.03;7.53;;;10.40;65.40;;;;;;6240871;28;20242;-78
2023/10/18 10:02:00;;;;;;;9.20;8.40;;;10.40;65.30;;;;;;6237073;28;20242;-78
2023/10/18 10:05:11;;;;;;;8.67;8.07;;;10.50;65.30;;;;;;6245996;28;20871;-78
2023/10/18 10:08:15;;;;;;;7.93;7.30;;;10.70;64.90;;;;;;6234335;28;20230;-81
2023/10/18 10:11:20;;;;;;;8.97;8.30;;;10.90;64.30;;;;;;6243801;28;20226;-79
2023/10/18 10:14:23;;;;;;;8.27;7.73;;;11.10;64.20;;;;;;6238480;28;20269;-80
2023/10/18 10:17:30;;;;;;;8.47;7.77;;;11.20;63.20;;;;;;6238315;28;20288;-79
2023/10/18 10:20:40;;;;;;;7.67;7.17;;;11.40;63.60;;;;;;6245139;28;20234;-78
2023/10/18 10:23:43;;;;;;;7.57;6.97;;;11.50;63.40;;;;;;6256096;28;20238;-78
2023/10/18 10:26:48;;;;;;;7.63;7.20;;;11.70;63.00;;;;;;6246514;28;20326;-77
2023/10/18 10:29:56;;;;;;;7.67;7.13;;;11.90;62.80;;;;;;6243259;28;20245;-79
2023/10/18 10:33:05;;;;;;;7.97;7.27;;;11.90;62.20;;;;;;6242492;28;20718;-78
2023/10/18 10:36:12;;;;;;;7.80;7.13;;;11.90;62.30;;;;;;6244920;28;20230;-79
2023/10/18 10:39:24;;;;;;;7.50;7.00;;;12.10;62.10;;;;;;6246402;28;20231;-79
2023/10/18 10:42:41;;;;;;;7.73;7.03;;;12.00;60.00;;;;;;6244303;28;20645;-80
2023/10/18 10:45:54;;;;;;;6.73;6.23;;;12.10;60.50;;;;;;6242588;28;20245;-79
2023/10/18 10:49:00;;;;;;;6.40;5.90;;;12.20;60.70;;;;;;6235770;28;20849;-79
2023/10/18 10:52:04;;;;;;;7.87;7.37;;;12.20;59.60;;;;;;6241538;28;20604;-79
2023/10/18 10:55:20;;;;;;;6.77;6.37;;;12.30;59.30;;;;;;6244903;28;20249;-80
2023/10/18 10:58:29;;;;;;;6.67;6.27;;;12.30;58.30;;;;;;6241753;28;20281;-79
2023/10/18 11:02:05;;;;;;;6.80;6.30;;;12.30;58.70;;;;;;6234539;28;20257;-80
2023/10/18 11:05:16;;;;;;;6.07;5.77;;;12.50;58.70;;;;;;6243778;28;20246;-79
2023/10/18 11:08:19;;;;;;;5.73;5.40;;;12.50;57.30;;;;;;6241770;28;20821;-79
2023/10/18 11:11:26;;;;;;;6.17;5.73;;;12.50;56.80;;;;;;6227762;28;20290;-78
2023/10/18 11:14:29;;;;;;;10.27;8.47;;;12.50;57.20;;;;;;6242735;28;20235;-78
2023/10/18 11:17:34;;;;;;;5.40;5.00;;;12.60;57.10;;;;;;6239505;28;20738;-80
2023/10/18 11:20:58;;;;;;;5.63;5.23;;;12.70;56.50;;;;;;6233145;28;20744;-81
2023/10/18 11:24:04;;;;;;;5.30;5.00;;;12.80;56.00;;;;;;6214079;28;20270;-79
2023/10/18 11:27:09;;;;;;;4.67;4.37;;;12.80;55.10;;;;;;6227018;28;20405;-80
2023/10/18 11:30:16;;;;;;;4.47;4.27;;;12.90;54.60;;;;;;6243917;28;20794;-78
2023/10/18 11:33:22;;;;;;;4.10;3.90;;;13.00;54.60;;;;;;6236372;28;20234;-78
2023/10/18 11:36:28;;;;;;;4.80;4.47;;;13.10;53.90;;;;;;6231575;28;20257;-81
2023/10/18 11:39:33;;;;;;;4.33;4.13;;;13.10;53.40;;;;;;6226335;28;21732;-80
2023/10/18 11:42:53;;;;;;;5.30;4.80;;;13.10;52.80;;;;;;6229713;28;20779;-80
2023/10/18 11:46:06;;;;;;;6.20;5.07;;;13.30;52.70;;;;;;6238852;28;20246;-79
2023/10/18 11:49:12;;;;;;;4.80;4.60;;;13.40;52.30;;;;;;6234596;28;20718;-77
2023/10/18 11:52:21;;;;;;;6.23;5.80;;;13.10;52.90;;;;;;6226209;28;20242;-80
2023/10/18 11:55:25;;;;;;;5.10;4.80;;;13.10;52.70;;;;;;6234736;28;20258;-81
2023/10/18 11:58:29;;;;;;;5.57;5.37;;;13.10;53.10;;;;;;6240810;28;20250;-79
2023/10/18 12:01:34;;;;;;;5.00;4.80;;;13.30;52.60;;;;;;6230488;28;20238;-81
2023/10/18 12:04:38;;;;;;;5.50;5.00;;;13.40;53.00;;;;;;6230898;28;20231;-79
2023/10/18 12:07:45;;;;;;;6.20;5.70;;;13.50;54.30;;;;;;6238601;28;20239;-77
2023/10/18 12:10:49;;;;;;;6.17;5.67;;;13.70;53.10;;;;;;6232286;28;20285;-80
2023/10/18 12:13:52;;;;;;;6.20;5.60;;;13.70;53.00;;;;;;6241397;28;20238;-79
2023/10/18 12:16:56;;;;;;;5.90;5.40;;;13.60;53.40;;;;;;6226814;28;20230;-79
2023/10/18 12:20:00;;;;;;;5.83;5.53;;;13.60;54.00;;;;;;6230615;28;21679;-79
2023/10/18 12:23:09;;;;;;;6.13;5.63;;;13.50;53.60;;;;;;6233623;28;20246;-79
2023/10/18 12:26:18;;;;;;;5.60;5.20;;;13.30;53.40;;;;;;6241371;28;20801;-78
2023/10/18 12:29:26;;;;;;;6.00;5.60;;;13.30;54.10;;;;;;6234402;28;20396;-79
2023/10/18 12:32:41;;;;;;;6.73;6.13;;;13.30;53.60;;;;;;6244681;28;20413;-79
2023/10/18 12:35:48;;;;;;;7.10;6.53;;;13.30;53.10;;;;;;6236986;28;20238;-79
2023/10/18 12:38:55;;;;;;;6.27;5.67;;;13.30;53.70;;;;;;6235542;28;20682;-79
2023/10/18 12:41:58;;;;;;;6.70;6.17;;;13.30;53.50;;;;;;6240423;28;20261;-78
2023/10/18 12:45:08;;;;;;;6.87;6.37;;;13.30;53.80;;;;;;6243030;28;20758;-79
2023/10/18 12:48:14;;;;;;;5.70;5.30;;;13.40;54.00;;;;;;6232497;28;20239;-80
2023/10/18 12:51:19;;;;;;;7.30;6.80;;;13.50;54.80;;;;;;6236579;28;20633;-81
2023/10/18 12:54:29;;;;;;;6.43;5.80;;;13.50;54.40;;;;;;6226544;28;20247;-80
2023/10/18 12:57:33;;;;;;;5.93;5.63;;;13.70;55.20;;;;;;6236242;28;20238;-79
2023/10/18 13:00:42;;;;;;;6.53;6.17;;;13.60;53.70;;;;;;6232543;28;20761;-79
2023/10/18 13:03:45;;;;;;;7.57;5.73;;;13.50;54.00;;;;;;6235411;28;20317;-82
2023/10/18 13:06:50;;;;;;;7.60;6.93;;;13.50;54.60;;;;;;6244721;28;20263;-81
2023/10/18 13:09:56;;;;;;;6.33;5.73;;;13.60;54.10;;;;;;6250810;28;20377;-79
2023/10/18 13:13:04;;;;;;;5.53;5.30;;;13.60;53.60;;;;;;6246564;28;20316;-79
2023/10/18 13:16:13;;;;;;;17.17;5.67;;;13.50;54.10;;;;;;6253351;28;20231;-79
2023/10/18 13:19:18;;;;;;;5.67;5.37;;;13.50;54.10;;;;;;6246769;28;20234;-79
2023/10/18 13:22:25;;;;;;;6.60;6.20;;;13.60;54.50;;;;;;6243002;28;20270;-78
2023/10/18 13:25:37;;;;;;;5.97;5.67;;;13.60;53.30;;;;;;6219844;28;20345;-78
2023/10/18 13:28:51;;;;;;;6.20;5.80;;;13.50;54.00;;;;;;6227602;28;20250;-79
2023/10/18 13:31:57;;;;;;;6.00;5.60;;;13.50;54.00;;;;;;6231728;28;20249;-79
2023/10/18 13:35:12;;;;;;;6.60;6.17;;;13.30;54.00;;;;;;6232901;28;20243;-79
2023/10/18 13:38:15;;;;;;;6.47;6.07;;;13.30;54.50;;;;;;6243747;28;20233;-81
2023/10/18 13:41:20;;;;;;;5.60;5.30;;;13.40;54.30;;;;;;6231286;28;20230;-80
2023/10/18 13:44:23;;;;;;;5.67;5.37;;;13.50;54.00;;;;;;6236203;28;20246;-80
2023/10/18 13:47:27;;;;;;;5.53;5.17;;;13.30;53.40;;;;;;6235496;28;20245;-80
2023/10/18 13:50:35;;;;;;;5.67;5.33;;;13.30;53.70;;;;;;6236077;28;20241;-79
2023/10/18 13:53:39;;;;;;;5.00;4.83;;;13.20;54.10;;;;;;6241745;28;20329;-81
2023/10/18 13:56:44;;;;;;;5.50;5.07;;;13.20;53.60;;;;;;6225037;28;20309;-80
2023/10/18 13:59:47;;;;;;;5.23;4.90;;;13.10;53.70;;;;;;6236473;28;20233;-79
2023/10/18 14:02:53;;;;;;;5.67;5.27;;;13.00;53.70;;;;;;6248104;28;20231;-80
2023/10/18 14:05:57;;;;;;;5.77;5.27;;;13.00;54.10;;;;;;6246740;28;21546;-80
2023/10/18 14:09:04;;;;;;;5.13;4.93;;;12.80;54.10;;;;;;6239878;28;20581;-78
2023/10/18 14:12:09;;;;;;;5.33;5.03;;;12.70;54.30;;;;;;6238332;28;20282;-80
2023/10/18 14:15:16;;;;;;;5.90;5.33;;;12.80;54.90;;;;;;6249524;28;20335;-80
2023/10/18 14:18:19;;;;;;;5.20;4.93;;;12.80;55.00;;;;;;6236715;28;20742;-77
2023/10/18 14:21:24;;;;;;;5.97;5.47;;;12.70;54.00;;;;;;6231233;28;20245;-80
2023/10/18 14:24:28;;;;;;;5.00;4.73;;;12.70;54.00;;;;;;6220863;28;20835;-78
2023/10/18 14:27:35;;;;;;;5.33;5.07;;;12.60;54.10;;;;;;6238864;28;20238;-80
2023/10/18 14:30:38;;;;;;;6.07;5.77;;;12.60;55.40;;;;;;6236483;28;20242;-79
2023/10/18 14:33:41;;;;;;;5.90;5.30;;;12.50;54.10;;;;;;6238060;28;20231;-80
2023/10/18 14:36:56;;;;;;;6.60;6.17;;;12.40;54.20;;;;;;6235565;28;20227;-78
2023/10/18 14:40:02;;;;;;;6.67;6.27;;;12.30;55.00;;;;;;6242482;28;20234;-79
2023/10/18 14:43:07;;;;;;;6.30;5.87;;;12.20;55.10;;;;;;6236257;28;20234;-77
2023/10/18 14:46:10;;;;;;;5.53;5.23;;;12.20;54.80;;;;;;6247834;28;20242;-76
2023/10/18 14:49:14;;;;;;;6.37;5.97;;;12.10;55.10;;;;;;6242357;28;20300;-78
2023/10/18 14:52:19;;;;;;;7.23;6.10;;;12.10;54.90;;;;;;6240971;28;20656;-79
2023/10/18 14:55:22;;;;;;;6.33;6.03;;;12.00;55.00;;;;;;6247755;28;20344;-79
2023/10/18 14:58:29;;;;;;;6.37;5.97;;;11.90;55.60;;;;;;6230673;28;20293;-80
2023/10/18 15:01:34;;;;;;;7.47;6.87;;;11.70;55.00;;;;;;6247253;28;20703;-77
2023/10/18 15:04:37;;;;;;;7.40;6.77;;;11.70;56.00;;;;;;6227451;28;20266;-80
2023/10/18 15:07:40;;;;;;;7.93;6.10;;;11.50;55.30;;;;;;6211959;28;20767;-79
2023/10/18 15:10:49;;;;;;;6.30;5.90;;;11.50;55.60;;;;;;6213918;28;20321;-79
2023/10/18 15:13:53;;;;;;;7.00;6.60;;;11.40;56.00;;;;;;6229085;28;20285;-78
2023/10/18 15:16:59;;;;;;;6.30;6.00;;;11.30;56.50;;;;;;6228021;28;20243;-78
2023/10/18 15:20:04;;;;;;;6.67;6.20;;;11.10;56.40;;;;;;6236644;28;20227;-79
2023/10/18 15:23:09;;;;;;;6.80;6.40;;;11.10;56.80;;;;;;6243101;28;20273;-80
2023/10/18 15:26:16;;;;;;;7.70;7.00;;;11.00;57.30;;;;;;6232771;28;20254;-77
2023/10/18 15:29:21;;;;;;;6.87;6.57;;;10.90;56.90;;;;;;6236707;28;20245;-79
2023/10/18 15:32:25;;;;;;;7.00;6.53;;;10.90;56.80;;;;;;6218314;28;20789;-78
2023/10/18 15:35:31;;;;;;;6.73;6.23;;;10.80;57.00;;;;;;6219573;28;20259;-77
2023/10/18 15:38:34;;;;;;;7.27;6.77;;;10.70;57.10;;;;;;6206736;28;20810;-77
2023/10/18 15:41:39;;;;;;;7.40;6.90;;;10.70;57.20;;;;;;6205644;28;20238;-77
2023/10/18 15:44:44;;;;;;;6.87;6.47;;;10.60;57.60;;;;;;6208588;28;20235;-77
2023/10/18 15:47:47;;;;;;;7.67;7.07;;;10.50;57.80;;;;;;6204430;28;20227;-78
2023/10/18 15:50:51;;;;;;;6.90;6.50;;;10.40;58.10;;;;;;6217676;28;20242;-78
2023/10/18 15:53:56;;;;;;;7.60;6.57;;;10.30;57.90;;;;;;6214704;28;20227;-79
2023/10/18 15:57:03;;;;;;;6.23;5.83;;;10.20;58.30;;;;;;6202088;28;20878;-79
2023/10/18 16:00:21;;;;;;;6.10;5.80;;;10.10;58.50;;;;;;6209897;28;20239;-79
2023/10/18 16:03:24;;;;;;;7.30;6.67;;;10.00;58.80;;;;;;6226464;28;20900;-78
2023/10/18 16:06:29;;;;;;;7.73;7.13;;;10.00;59.10;;;;;;6231337;28;20244;-79
2023/10/18 16:09:33;;;;;;;7.57;6.87;;;9.80;59.30;;;;;;6234240;28;20253;-79